Plum Branch, SC (29845)

5:40 PM EDT on June 03, 2015 (GMT -0400)
Plum Branch South Carolina | | Change Station
CLOSE
Current Station
Personal Weather Station
Location: Plum Branch, SC
Elevation: 354 ft
Nearby Weather Stations
Active Advisory: Flood Warning Active Notice: Record Report

Elev 354 ft 33.81 °N, 82.31 °W | Updated 3 seconds ago

Partly Cloudy
Partly Cloudy
81.6 °F
Feels Like 83 °F
N
4.0
Wind Variable Wind from SSE
Gusts 9.0 mph

Today
High -- | Low -- °F
--% Chance of Precip.
Yesterday
High -- | Low -- °F
Precip. -- in
6:18 AM 8:35 PM
Full, 98% visible
Pressure 29.99 in
Visibility 10.0 miles
Clouds Scattered Clouds 4900 ft
Heat Index 83 °F
Dew Point 65 °F
Humidity 57%
Rainfall 0.00 in
Snow Depth Not available.
UV 3 out of 12
Pollen 4.50 out of 12
Air Quality Not available.
Flu Activity Local Activity
METAR KHQU 032135Z AUTO 10004KT 10SM SCT049 27/20 A2999 RMK AO1 T02680196

More Conditions Fewer Conditions

Pressure 29.99 in
Visibility 10.0 miles
Clouds Scattered Clouds 4900 ft
Heat Index 83 °F
Dew Point 65 °F
Humidity 57%
Rainfall 0.00 in
Snow Depth Not available.
UV 3 out of 12
Pollen 4.50 out of 12
Air Quality Not available.
Flu Activity Local Activity
METAR KHQU 032135Z AUTO 10004KT 10SM SCT049 27/20 A2999 RMK AO1 T02680196

More Conditions Fewer Conditions

10-Day Weather Forecast

×

Almanac

Astronomy

Jun. 03, 2015 Rise Set
Actual Time
Civil Twilight
Nautical Twilight
Astronomical Twilight
Moon
Length of Visible Light
Length of Day
Tomorrow will be .
, % of the Moon is Illuminated

Today's Extremes

State Highs State Lows

Community

WunderPhotos

Upload Photos

1,826,291 photos uploaded!

WunderBlogs® & News

Nearby

Air Quality

  Air Quality AQ Index Pollutant
Not available.

Snow Depth

Station Depth Elevation

Earthquake Activity

City Distance Mag. Time & Date
Minimum magnitude displayed is 2.5.

Coastal Water Temperatures

Place Temperature

Stations

Nearby Weather Stations

Station Location Temp. Windchill Dew Point Humidity Wind Precip. Elev Updated Type
                   
Flood Warning
Statement as of 2:34 PM EDT on June 03, 2015

The Flood Warning extended for
the Stevens Creek near Modoc.
* Until Friday afternoon... or until the warning is cancelled.
* At 2 PM Wednesday the stage was 19.5 feet.
* Flood stage is 19.0 feet.
* Minor flooding is occurring and minor flooding is forecast.
* Forecast... the river will continue rising to near 20.1 feet by this
evening.
* At 19.0 feet... farmland along Stevens Creek above the US Highway 23
bridge near Modoc becomes flooded.


Lat... Lon 3384 8216 3360 8203 3352 8211 3385 8229